createdAt,value
2022-07-25T00:02:07.522Z,7.80
2022-07-25T00:04:36.718Z,7.88
2022-07-25T00:07:04.552Z,7.93
2022-07-25T00:09:33.655Z,7.97
2022-07-25T00:12:01.351Z,7.60
2022-07-25T00:14:29.152Z,7.65
2022-07-25T00:16:56.898Z,8.25
2022-07-25T00:19:24.647Z,8.15
2022-07-25T00:21:52.365Z,8.48
2022-07-25T00:24:20.135Z,8.20
2022-07-25T00:26:49.250Z,7.38
2022-07-25T00:29:16.962Z,8.25
2022-07-25T00:31:44.814Z,8.52
2022-07-25T00:34:12.562Z,8.43
2022-07-25T00:36:40.278Z,7.93
2022-07-25T00:39:08.001Z,8.40
2022-07-25T00:41:36.211Z,7.55
2022-07-25T00:44:05.967Z,7.80
2022-07-25T00:46:33.965Z,8.20
2022-07-25T00:49:02.025Z,7.90
2022-07-25T00:51:29.861Z,8.30
2022-07-25T00:53:57.610Z,8.38
2022-07-25T00:56:25.362Z,8.52
2022-07-25T00:58:53.041Z,7.97
2022-07-25T01:01:22.243Z,7.75
2022-07-25T01:03:50.005Z,8.18
2022-07-25T01:06:17.729Z,8.02
2022-07-25T01:08:45.464Z,8.45
2022-07-25T01:11:13.196Z,7.50
2022-07-25T01:13:40.878Z,8.35
2022-07-25T01:16:09.209Z,7.63
2022-07-25T01:18:38.393Z,8.35
2022-07-25T01:21:07.569Z,7.85
2022-07-25T01:23:35.326Z,8.43
2022-07-25T01:26:03.014Z,7.82
2022-07-25T01:28:30.823Z,8.55
2022-07-25T01:30:58.551Z,7.95
2022-07-25T01:33:26.407Z,8.10
2022-07-25T01:35:54.133Z,8.07
2022-07-25T01:38:23.227Z,8.10
2022-07-25T01:40:51.065Z,8.20
2022-07-25T01:43:18.769Z,8.00
2022-07-25T01:45:46.572Z,8.15
2022-07-25T01:48:14.356Z,7.72
2022-07-25T01:50:42.202Z,7.53
2022-07-25T01:53:09.915Z,7.82
2022-07-25T01:55:39.014Z,8.10
2022-07-25T01:58:07.409Z,8.48
2022-07-25T02:00:35.709Z,8.68
2022-07-25T02:03:20.932Z,8.40
2022-07-25T02:05:48.680Z,8.52
2022-07-25T02:08:16.407Z,8.23
2022-07-25T02:10:46.226Z,8.30
2022-07-25T02:13:13.912Z,7.90
2022-07-25T02:15:41.734Z,8.45
2022-07-25T02:18:09.468Z,8.52
2022-07-25T02:20:37.191Z,8.38
2022-07-25T02:23:04.949Z,7.78
2022-07-25T02:25:32.691Z,8.63
2022-07-25T02:28:01.911Z,8.70
2022-07-25T02:30:29.854Z,8.85
2022-07-25T02:32:57.667Z,8.63
2022-07-25T02:35:25.355Z,8.75
2022-07-25T02:37:53.097Z,8.77
2022-07-25T02:40:20.796Z,9.02
2022-07-25T02:42:48.577Z,9.15
2022-07-25T02:45:17.986Z,8.27
2022-07-25T02:47:45.843Z,8.60
2022-07-25T02:50:15.021Z,9.13
2022-07-25T02:52:43.124Z,8.93
2022-07-25T02:55:11.389Z,8.50
2022-07-25T02:57:39.075Z,8.38
2022-07-25T03:00:08.426Z,8.43
2022-07-25T03:02:37.541Z,8.98
2022-07-25T03:05:07.284Z,9.13
2022-07-25T03:07:35.086Z,8.25
2022-07-25T03:10:02.930Z,8.85
2022-07-25T03:12:38.838Z,8.95
2022-07-25T03:15:08.789Z,9.00
2022-07-25T03:17:38.035Z,9.65
2022-07-25T03:20:06.869Z,9.20
2022-07-25T03:22:35.094Z,9.35
2022-07-25T03:25:02.872Z,9.38
2022-07-25T03:27:30.875Z,9.93
2022-07-25T03:29:58.560Z,8.95
2022-07-25T03:32:26.282Z,9.25
2022-07-25T03:34:55.380Z,10.52
2022-07-25T03:37:23.052Z,9.90
2022-07-25T03:39:50.774Z,9.43
2022-07-25T03:42:20.473Z,9.88
2022-07-25T03:44:51.899Z,9.88
2022-07-25T03:47:20.502Z,9.45
2022-07-25T03:49:48.615Z,10.60
2022-07-25T03:52:17.750Z,9.27
2022-07-25T03:54:45.433Z,9.45
2022-07-25T03:57:13.140Z,10.38
2022-07-25T03:59:40.837Z,9.95
2022-07-25T04:02:08.596Z,10.02
2022-07-25T04:04:36.393Z,9.63
2022-07-25T04:07:04.189Z,10.35
2022-07-25T04:09:33.557Z,9.35
2022-07-25T04:12:01.569Z,10.07
2022-07-25T04:14:29.268Z,9.75
2022-07-25T04:16:57.152Z,11.75
2022-07-25T04:19:26.217Z,11.82
2022-07-25T04:21:56.541Z,12.02
2022-07-25T04:24:24.283Z,12.95
2022-07-25T04:26:53.396Z,12.32
2022-07-25T04:29:21.087Z,12.02
2022-07-25T04:31:48.895Z,11.60
2022-07-25T04:34:16.706Z,12.57
2022-07-25T04:36:44.592Z,11.63
2022-07-25T04:39:12.319Z,11.90
2022-07-25T04:41:40.052Z,11.40
2022-07-25T04:44:09.745Z,11.00
2022-07-25T04:46:37.683Z,10.40
2022-07-25T04:49:05.656Z,11.23
2022-07-25T04:51:34.089Z,10.90
2022-07-25T04:54:02.638Z,10.25
2022-07-25T04:56:30.533Z,10.85
2022-07-25T04:59:03.123Z,10.38
2022-07-25T05:01:35.447Z,10.35
2022-07-25T05:04:04.108Z,9.80
2022-07-25T05:06:33.166Z,10.40
2022-07-25T05:09:01.483Z,10.70
2022-07-25T05:11:29.826Z,10.02
2022-07-25T05:13:57.547Z,10.10
2022-07-25T05:16:26.011Z,9.88
2022-07-25T05:18:55.306Z,9.45
2022-07-25T05:21:22.983Z,9.93
2022-07-25T05:23:50.735Z,9.25
2022-07-25T05:26:18.454Z,9.40
2022-07-25T05:28:46.179Z,9.98
2022-07-25T05:31:14.013Z,9.98
2022-07-25T05:33:42.519Z,9.55
2022-07-25T05:36:11.719Z,9.93
2022-07-25T05:38:39.452Z,9.65
2022-07-25T05:41:07.404Z,10.02
2022-07-25T05:43:35.134Z,9.60
2022-07-25T05:46:03.016Z,9.98
2022-07-25T05:48:30.794Z,10.23
2022-07-25T05:50:59.407Z,10.05
2022-07-25T05:53:28.523Z,10.50
2022-07-25T05:55:56.386Z,9.57
2022-07-25T05:58:29.434Z,10.18
2022-07-25T06:00:57.828Z,10.35
2022-07-25T06:03:28.788Z,9.98
2022-07-25T06:05:56.928Z,10.18
2022-07-25T06:08:24.917Z,9.88
2022-07-25T06:10:54.238Z,10.43
2022-07-25T06:13:23.603Z,10.30
2022-07-25T06:15:51.559Z,10.23
2022-07-25T06:18:19.387Z,10.32
2022-07-25T06:20:47.157Z,10.20
2022-07-25T06:23:15.026Z,10.60
2022-07-25T06:25:42.778Z,10.80
2022-07-25T06:28:19.478Z,10.13
2022-07-25T06:30:47.266Z,10.40
2022-07-25T06:33:15.168Z,10.10
2022-07-25T06:35:42.897Z,10.07
2022-07-25T06:38:10.608Z,10.43
2022-07-25T06:40:38.358Z,10.07
2022-07-25T06:43:06.050Z,11.02
2022-07-25T06:45:35.192Z,10.30
2022-07-25T06:48:02.933Z,11.05
2022-07-25T06:50:31.195Z,10.45
2022-07-25T06:52:58.895Z,10.07
2022-07-25T06:55:26.597Z,10.75
2022-07-25T06:57:54.590Z,10.30
2022-07-25T07:00:22.298Z,10.70
2022-07-25T07:02:53.194Z,10.30
2022-07-25T07:05:21.004Z,9.93
2022-07-25T07:07:48.697Z,10.40
2022-07-25T07:10:16.595Z,10.02
2022-07-25T07:12:44.363Z,10.40
2022-07-25T07:15:12.296Z,9.57
2022-07-25T07:17:40.298Z,9.52
2022-07-25T07:20:10.128Z,10.13
2022-07-25T07:22:45.133Z,10.50
2022-07-25T07:25:14.451Z,9.93
2022-07-25T07:27:42.239Z,10.15
2022-07-25T07:30:10.875Z,10.10
2022-07-25T07:32:38.932Z,9.98
2022-07-25T07:35:07.576Z,10.30
2022-07-25T07:37:41.434Z,9.98
2022-07-25T07:40:17.224Z,10.02
2022-07-25T07:42:47.112Z,9.43
2022-07-25T07:45:15.491Z,9.68
2022-07-25T07:47:43.330Z,9.85
2022-07-25T07:50:11.308Z,10.30
2022-07-25T07:52:40.426Z,10.07
2022-07-25T07:55:26.164Z,9.77
2022-07-25T07:57:53.897Z,10.05
2022-07-25T08:00:25.541Z,9.45
2022-07-25T08:02:54.925Z,9.60
2022-07-25T08:05:23.404Z,9.80
2022-07-25T08:07:52.589Z,9.65
2022-07-25T08:10:21.899Z,9.90
2022-07-25T08:12:49.903Z,9.68
2022-07-25T08:15:18.197Z,10.23
2022-07-25T08:17:46.227Z,10.35
2022-07-25T08:20:36.452Z,10.15
2022-07-25T08:23:03.734Z,10.20
2022-07-25T08:25:32.084Z,9.48
2022-07-25T08:28:00.010Z,9.63
2022-07-25T08:30:27.799Z,10.35
2022-07-25T08:32:57.296Z,9.82
2022-07-25T08:35:25.732Z,9.77
2022-07-25T08:37:53.515Z,9.65
2022-07-25T08:40:23.988Z,9.95
2022-07-25T08:42:51.836Z,10.18
2022-07-25T08:45:20.465Z,10.23
2022-07-25T08:47:48.497Z,9.85
2022-07-25T08:50:17.321Z,9.68
2022-07-25T08:52:45.439Z,9.90
2022-07-25T08:55:16.782Z,10.15
2022-07-25T08:57:46.418Z,10.20
2022-07-25T09:00:16.537Z,10.52
2022-07-25T09:02:44.337Z,9.80
2022-07-25T09:05:12.088Z,9.70
2022-07-25T09:07:40.346Z,9.77
2022-07-25T09:10:15.445Z,9.73
2022-07-25T09:12:43.362Z,9.70
2022-07-25T09:15:12.858Z,9.65
2022-07-25T09:17:41.267Z,9.80
2022-07-25T09:20:09.878Z,9.13
2022-07-25T09:22:46.933Z,9.45
2022-07-25T09:25:25.196Z,9.38
2022-07-25T09:27:53.003Z,8.88
2022-07-25T09:30:22.096Z,8.88
2022-07-25T09:33:00.615Z,9.30
2022-07-25T09:35:31.795Z,9.20
2022-07-25T09:38:11.154Z,9.38
2022-07-25T09:40:38.834Z,9.23
2022-07-25T09:43:06.969Z,8.65
2022-07-25T09:45:36.076Z,8.98
2022-07-25T09:48:04.988Z,9.50
2022-07-25T09:50:33.438Z,9.40
2022-07-25T09:53:02.427Z,9.48
2022-07-25T09:55:30.720Z,10.13
2022-07-25T09:57:58.399Z,14.63
2022-07-25T10:00:27.484Z,14.13
2022-07-25T10:03:05.248Z,11.98
2022-07-25T10:05:41.066Z,13.60
2022-07-25T10:08:09.906Z,13.55
2022-07-25T10:10:39.744Z,12.40
2022-07-25T10:13:11.196Z,12.38
2022-07-25T10:15:46.657Z,11.15
2022-07-25T10:18:16.136Z,11.07
2022-07-25T10:20:44.025Z,10.68
2022-07-25T10:23:19.189Z,9.90
2022-07-25T10:25:49.079Z,10.20
2022-07-25T10:28:21.241Z,9.50
2022-07-25T10:30:49.057Z,8.73
2022-07-25T10:33:19.205Z,9.02
2022-07-25T10:35:47.231Z,8.23
2022-07-25T10:38:14.965Z,8.75
2022-07-25T10:40:43.887Z,8.25
2022-07-25T10:43:13.469Z,8.30
2022-07-25T10:45:45.841Z,7.63
2022-07-25T10:48:21.252Z,7.95
2022-07-25T10:50:56.531Z,7.40
2022-07-25T10:53:38.402Z,7.28
2022-07-25T10:56:10.616Z,7.18
2022-07-25T10:58:47.063Z,7.10
2022-07-25T11:01:15.492Z,6.93
2022-07-25T11:03:45.620Z,6.95
2022-07-25T11:06:15.266Z,7.15
2022-07-25T11:08:43.346Z,6.82
2022-07-25T11:11:11.449Z,7.20
2022-07-25T11:13:39.972Z,6.72
2022-07-25T11:16:08.395Z,6.80
2022-07-25T11:18:37.631Z,7.03
2022-07-25T11:21:07.168Z,6.72
2022-07-25T11:23:36.841Z,6.63
2022-07-25T11:26:06.167Z,7.20
2022-07-25T11:28:44.214Z,6.95
2022-07-25T11:31:12.435Z,6.32
2022-07-25T11:33:40.658Z,6.70
2022-07-25T11:36:09.711Z,6.78
2022-07-25T11:38:39.011Z,6.57
2022-07-25T11:41:07.275Z,6.20
2022-07-25T11:43:35.046Z,6.63
2022-07-25T11:46:03.690Z,6.57
2022-07-25T11:48:33.181Z,6.65
2022-07-25T11:51:14.911Z,6.68
2022-07-25T11:53:48.141Z,6.63
2022-07-25T11:56:40.661Z,6.95
2022-07-25T11:59:05.234Z,6.82
2022-07-25T12:01:37.252Z,7.32
2022-07-25T12:04:15.260Z,6.40
2022-07-25T12:06:43.414Z,6.88
2022-07-25T12:09:18.918Z,6.82
2022-07-25T12:11:47.454Z,6.88
2022-07-25T12:14:15.287Z,6.70
2022-07-25T12:16:44.423Z,7.35
2022-07-25T12:19:19.885Z,7.65
2022-07-25T12:21:47.615Z,7.18
2022-07-25T12:24:16.737Z,7.10
2022-07-25T12:26:44.467Z,7.18
2022-07-25T12:29:12.192Z,7.22
2022-07-25T12:31:39.921Z,7.20
2022-07-25T12:34:07.611Z,7.30
2022-07-25T12:36:41.116Z,7.30
2022-07-25T12:39:09.328Z,7.43
2022-07-25T12:41:40.006Z,7.55
2022-07-25T12:44:07.706Z,7.07
2022-07-25T12:46:36.062Z,7.32
2022-07-25T12:49:04.176Z,7.25
2022-07-25T12:51:32.132Z,7.05
2022-07-25T12:53:59.840Z,6.75
2022-07-25T12:56:27.535Z,7.03
2022-07-25T12:58:56.791Z,7.30
2022-07-25T13:01:24.828Z,7.70
2022-07-25T13:03:52.709Z,7.07
2022-07-25T13:06:20.797Z,7.00
2022-07-25T13:08:48.535Z,7.07
2022-07-25T13:11:16.281Z,7.18
2022-07-25T13:13:43.963Z,7.05
2022-07-25T13:16:13.111Z,7.20
2022-07-25T13:18:40.931Z,7.65
2022-07-25T13:21:08.703Z,7.30
2022-07-25T13:23:36.604Z,7.35
2022-07-25T13:26:04.356Z,7.43
2022-07-25T13:28:32.329Z,7.18
2022-07-25T13:31:01.557Z,7.35
2022-07-25T13:33:30.808Z,7.45
2022-07-25T13:35:58.623Z,6.85
2022-07-25T13:38:26.359Z,7.22
2022-07-25T13:40:58.684Z,6.93
2022-07-25T13:43:26.725Z,7.47
2022-07-25T13:45:54.511Z,6.88
2022-07-25T13:48:31.613Z,6.93
2022-07-25T13:51:01.369Z,7.20
2022-07-25T13:53:30.535Z,7.05
2022-07-25T13:56:01.443Z,8.07
2022-07-25T13:58:29.556Z,6.97
2022-07-25T14:00:57.397Z,6.90
2022-07-25T14:03:25.146Z,6.93
2022-07-25T14:05:52.907Z,7.72
2022-07-25T14:08:22.253Z,7.80
2022-07-25T14:10:50.049Z,6.72
2022-07-25T14:13:17.761Z,7.10
2022-07-25T14:15:45.881Z,7.32
2022-07-25T14:18:13.675Z,7.55
2022-07-25T14:20:41.354Z,7.20
2022-07-25T14:23:09.064Z,6.68
2022-07-25T14:25:38.244Z,6.95
2022-07-25T14:28:06.130Z,6.45
2022-07-25T14:30:33.816Z,7.50
2022-07-25T14:33:01.730Z,6.60
2022-07-25T14:35:32.506Z,6.47
2022-07-25T14:38:00.694Z,6.72
2022-07-25T14:40:28.435Z,6.35
2022-07-25T14:42:57.521Z,6.55
2022-07-25T14:45:25.278Z,6.55
2022-07-25T14:47:53.896Z,6.82
2022-07-25T14:50:21.772Z,6.63
2022-07-25T14:52:49.454Z,6.50
2022-07-25T14:55:17.144Z,6.63
2022-07-25T14:57:45.253Z,6.60
2022-07-25T15:00:15.528Z,6.07
2022-07-25T15:02:43.629Z,6.00
2022-07-25T15:05:11.415Z,6.53
2022-07-25T15:07:39.197Z,6.57
2022-07-25T15:10:08.309Z,6.38
2022-07-25T15:12:36.021Z,6.15
2022-07-25T15:15:12.407Z,6.60
2022-07-25T15:17:41.495Z,6.50
2022-07-25T15:20:10.535Z,6.47
2022-07-25T15:22:38.273Z,6.47
2022-07-25T15:25:59.604Z,6.28
2022-07-25T15:27:54.501Z,6.10
2022-07-25T15:30:27.310Z,6.18
2022-07-25T15:32:58.197Z,5.85
2022-07-25T15:35:25.899Z,5.65
2022-07-25T15:37:53.602Z,5.78
2022-07-25T15:40:21.673Z,5.28
2022-07-25T15:42:49.566Z,5.68
2022-07-25T15:45:36.237Z,5.82
2022-07-25T15:48:07.853Z,5.70
2022-07-25T15:50:35.931Z,5.50
2022-07-25T15:53:03.673Z,5.68
2022-07-25T15:55:31.738Z,5.25
2022-07-25T15:57:59.526Z,5.60
2022-07-25T16:00:29.637Z,5.88
2022-07-25T16:02:58.126Z,5.53
2022-07-25T16:05:27.300Z,5.20
2022-07-25T16:07:55.005Z,5.63
2022-07-25T16:10:22.872Z,5.22
2022-07-25T16:12:50.600Z,5.72
2022-07-25T16:15:19.163Z,5.72
2022-07-25T16:17:46.997Z,5.60
2022-07-25T16:20:14.860Z,6.00
2022-07-25T16:22:44.070Z,4.97
2022-07-25T16:25:11.742Z,5.65
2022-07-25T16:27:39.672Z,5.90
2022-07-25T16:30:08.781Z,5.32
2022-07-25T16:32:36.528Z,5.75
2022-07-25T16:35:04.555Z,6.25
2022-07-25T16:37:32.718Z,6.22
2022-07-25T16:40:01.851Z,6.57
2022-07-25T16:42:29.556Z,6.00
2022-07-25T16:44:57.239Z,6.13
2022-07-25T16:47:25.208Z,6.15
2022-07-25T16:49:52.927Z,5.95
2022-07-25T16:52:20.738Z,5.82
2022-07-25T16:54:48.448Z,5.90
2022-07-25T16:57:17.539Z,6.57
2022-07-25T16:59:45.782Z,5.82
2022-07-25T17:02:13.714Z,6.03
2022-07-25T17:04:41.567Z,6.07
2022-07-25T17:07:09.761Z,5.93
2022-07-25T17:09:37.512Z,6.32
2022-07-25T17:12:06.029Z,6.60
2022-07-25T17:14:36.671Z,6.43
2022-07-25T17:17:04.734Z,6.30
2022-07-25T17:19:35.619Z,6.78
2022-07-25T17:22:03.375Z,7.70
2022-07-25T17:24:31.485Z,7.47
2022-07-25T17:26:59.175Z,7.50
2022-07-25T17:29:27.123Z,8.07
2022-07-25T17:31:56.366Z,7.78
2022-07-25T17:34:25.306Z,7.30
2022-07-25T17:36:53.078Z,7.88
2022-07-25T17:39:21.131Z,8.60
2022-07-25T17:41:49.022Z,9.38
2022-07-25T17:44:17.252Z,8.63
2022-07-25T17:46:45.344Z,8.70
2022-07-25T17:49:14.636Z,8.48
2022-07-25T17:51:42.436Z,10.68
2022-07-25T17:54:10.656Z,10.52
2022-07-25T17:56:38.848Z,9.60
2022-07-25T17:59:07.210Z,8.57
2022-07-25T18:01:34.948Z,8.82
2022-07-25T18:04:03.095Z,8.02
2022-07-25T18:06:32.824Z,8.95
2022-07-25T18:09:01.172Z,8.02
2022-07-25T18:11:28.997Z,8.18
2022-07-25T18:13:56.762Z,8.80
2022-07-25T18:16:24.764Z,7.82
2022-07-25T18:18:52.778Z,8.07
2022-07-25T18:21:20.580Z,7.50
2022-07-25T18:23:49.843Z,7.35
2022-07-25T18:26:17.924Z,7.70
2022-07-25T18:28:45.873Z,7.78
2022-07-25T18:31:14.486Z,7.57
2022-07-25T18:33:42.491Z,7.55
2022-07-25T18:36:10.711Z,7.32
2022-07-25T18:38:38.841Z,7.15
2022-07-25T18:41:28.697Z,7.15
2022-07-25T18:43:57.472Z,7.72
2022-07-25T18:46:25.485Z,7.32
2022-07-25T18:48:54.041Z,7.78
2022-07-25T18:51:22.664Z,7.75
2022-07-25T18:53:50.926Z,7.18
2022-07-25T18:56:20.676Z,7.28
2022-07-25T18:58:48.453Z,6.85
2022-07-25T19:01:16.399Z,7.68
2022-07-25T19:03:44.183Z,7.03
2022-07-25T19:06:12.132Z,7.07
2022-07-25T19:08:40.407Z,7.07
2022-07-25T19:11:08.522Z,7.00
2022-07-25T19:13:49.673Z,6.97
2022-07-25T19:16:18.389Z,7.15
2022-07-25T19:19:05.176Z,7.20
2022-07-25T19:21:33.058Z,6.82
2022-07-25T19:24:00.760Z,7.82
2022-07-25T19:26:28.527Z,7.32
2022-07-25T19:28:58.650Z,7.50
2022-07-25T19:31:27.046Z,7.05
2022-07-25T19:33:55.272Z,7.93
2022-07-25T19:36:23.044Z,7.80
2022-07-25T19:38:50.773Z,7.28
2022-07-25T19:41:18.505Z,7.60
2022-07-25T19:43:46.249Z,7.68
2022-07-25T19:46:15.389Z,7.68
2022-07-25T19:48:43.276Z,8.00
2022-07-25T19:51:11.035Z,7.10
2022-07-25T19:53:38.869Z,7.72
2022-07-25T19:56:08.428Z,7.13
2022-07-25T19:58:38.845Z,7.65
2022-07-25T20:01:08.283Z,7.72
2022-07-25T20:03:37.380Z,7.90
2022-07-25T20:06:08.275Z,6.93
2022-07-25T20:08:36.410Z,7.13
2022-07-25T20:11:04.386Z,6.97
2022-07-25T20:13:32.164Z,7.57
2022-07-25T20:15:59.936Z,7.10
2022-07-25T20:18:27.744Z,6.78
2022-07-25T20:20:56.812Z,7.28
2022-07-25T20:23:24.674Z,6.78
2022-07-25T20:25:52.580Z,6.93
2022-07-25T20:28:20.280Z,7.40
2022-07-25T20:30:48.071Z,6.85
2022-07-25T20:33:15.781Z,6.68
2022-07-25T20:35:43.572Z,6.00
2022-07-25T20:38:12.740Z,6.18
2022-07-25T20:40:46.277Z,6.97
2022-07-25T20:43:16.427Z,5.93
2022-07-25T20:45:44.215Z,7.35
2022-07-25T20:48:12.022Z,6.70
2022-07-25T20:50:39.799Z,6.90
2022-07-25T20:53:07.632Z,6.43
2022-07-25T20:55:36.760Z,6.53
2022-07-25T20:58:04.572Z,6.30
2022-07-25T21:00:32.603Z,6.68
2022-07-25T21:03:00.492Z,6.68
2022-07-25T21:05:28.360Z,6.45
2022-07-25T21:07:56.112Z,6.90
2022-07-25T21:10:23.948Z,6.70
2022-07-25T21:12:55.374Z,7.07
2022-07-25T21:15:23.256Z,6.80
2022-07-25T21:17:51.103Z,7.15
2022-07-25T21:20:18.908Z,6.60
2022-07-25T21:22:46.668Z,6.57
2022-07-25T21:25:14.375Z,7.07
2022-07-25T21:27:42.115Z,7.00
2022-07-25T21:30:12.180Z,6.95
2022-07-25T21:32:40.869Z,7.07
2022-07-25T21:35:09.340Z,6.72
2022-07-25T21:37:37.130Z,7.30
2022-07-25T21:40:05.447Z,7.00
2022-07-25T21:42:33.207Z,7.22
2022-07-25T21:45:00.944Z,6.88
2022-07-25T21:47:30.043Z,7.32
2022-07-25T21:50:19.244Z,7.60
2022-07-25T21:52:52.679Z,6.50
2022-07-25T21:55:20.791Z,6.78
2022-07-25T21:57:48.924Z,6.28
2022-07-25T22:00:16.961Z,5.75
2022-07-25T22:02:46.756Z,6.35
2022-07-25T22:05:14.820Z,5.38
2022-07-25T22:07:42.575Z,5.35
2022-07-25T22:10:11.169Z,5.25
2022-07-25T22:12:39.231Z,5.28
2022-07-25T22:15:07.724Z,5.18
2022-07-25T22:17:48.793Z,5.45
2022-07-25T22:20:18.874Z,4.90
2022-07-25T22:22:46.866Z,5.00
2022-07-25T22:25:14.669Z,5.22
2022-07-25T22:27:42.569Z,5.60
2022-07-25T22:30:17.951Z,5.18
2022-07-25T22:32:46.000Z,5.00
2022-07-25T22:35:13.837Z,5.43
2022-07-25T22:37:43.005Z,4.65
2022-07-25T22:40:11.787Z,4.70
2022-07-25T22:42:39.519Z,4.90
2022-07-25T22:45:08.263Z,4.88
2022-07-25T22:47:36.057Z,4.55
2022-07-25T22:50:04.013Z,4.53
2022-07-25T22:52:31.847Z,4.45
2022-07-25T22:55:00.936Z,4.40
2022-07-25T22:57:28.769Z,4.22
2022-07-25T22:59:56.520Z,4.40
2022-07-25T23:02:25.945Z,4.40
2022-07-25T23:04:53.657Z,4.30
2022-07-25T23:07:21.417Z,4.15
2022-07-25T23:09:49.284Z,4.30
2022-07-25T23:12:18.393Z,4.53
2022-07-25T23:14:46.144Z,4.20
2022-07-25T23:17:20.010Z,4.00
2022-07-25T23:19:48.688Z,4.00
2022-07-25T23:22:16.513Z,3.92
2022-07-25T23:24:44.284Z,3.85
2022-07-25T23:27:12.084Z,3.40
2022-07-25T23:29:41.283Z,3.60
2022-07-25T23:32:08.927Z,3.92
2022-07-25T23:34:36.834Z,4.10
2022-07-25T23:37:04.929Z,3.70
2022-07-25T23:39:33.416Z,3.70
2022-07-25T23:42:01.305Z,4.13
2022-07-25T23:44:29.086Z,3.78
2022-07-25T23:46:59.905Z,3.60
2022-07-25T23:49:29.370Z,3.90
2022-07-25T23:51:57.515Z,4.10
2022-07-25T23:54:25.710Z,3.40
2022-07-25T23:56:53.451Z,3.58
2022-07-25T23:59:21.273Z,3.65
